Time;durP1;ratioP1;P1;durP2;ratioP2;P2;SDS_P1;SDS_P2;PMS_P1;PMS_P2;Temp;Humidity;BMP_temperature;BMP_pressure;BME280_temperature;BME280_humidity;BME280_pressure;Samples;Min_cycle;Max_cycle;Signal;HPM_P1;HPM_P2
2021/04/25 00:00:48;;;;;;;8.37;3.40;;;10.40;87.40;;;;;;5069541;28;20388;-55
2021/04/25 00:03:14;;;;;;;8.80;4.23;;;10.40;88.80;;;;;;5068412;28;20372;-55
2021/04/25 00:05:39;;;;;;;7.85;3.90;;;10.50;89.00;;;;;;5069081;28;20384;-55
2021/04/25 00:08:05;;;;;;;8.13;3.90;;;10.40;89.20;;;;;;5068397;28;20412;-55
2021/04/25 00:10:31;;;;;;;8.85;4.10;;;10.40;90.00;;;;;;5069078;28;20376;-55
2021/04/25 00:12:57;;;;;;;11.20;4.50;;;10.30;90.40;;;;;;5068489;28;20919;-54
2021/04/25 00:15:24;;;;;;;11.68;4.70;;;10.20;91.00;;;;;;5069206;28;20396;-56
2021/04/25 00:17:50;;;;;;;8.90;4.35;;;10.20;91.50;;;;;;5070558;28;20380;-54
2021/04/25 00:20:17;;;;;;;9.02;4.13;;;10.20;91.70;;;;;;5071935;28;20471;-55
2021/04/25 00:22:44;;;;;;;9.65;4.32;;;10.10;92.20;;;;;;5073066;28;20482;-56
2021/04/25 00:25:11;;;;;;;11.20;4.75;;;10.10;92.70;;;;;;5071910;28;20433;-55
2021/04/25 00:27:37;;;;;;;10.27;4.70;;;10.00;93.30;;;;;;5072209;28;20380;-55
2021/04/25 00:30:05;;;;;;;9.10;3.95;;;9.90;94.40;;;;;;5071844;28;20422;-55
2021/04/25 00:32:31;;;;;;;10.23;4.97;;;9.80;94.80;;;;;;5072339;28;20383;-55
2021/04/25 00:34:56;;;;;;;12.93;4.43;;;9.70;95.40;;;;;;5071560;28;20418;-55
2021/04/25 00:37:22;;;;;;;10.57;4.83;;;9.80;95.70;;;;;;5072564;28;20501;-56
2021/04/25 00:39:47;;;;;;;11.40;4.50;;;9.70;96.20;;;;;;5072365;28;20725;-56
2021/04/25 00:42:15;;;;;;;9.93;4.57;;;9.70;96.30;;;;;;5071247;28;20477;-55
2021/04/25 00:44:44;;;;;;;8.77;4.20;;;9.70;96.40;;;;;;5072299;28;20380;-56
2021/04/25 00:47:11;;;;;;;9.52;3.95;;;9.70;96.60;;;;;;5071341;28;20395;-56
2021/04/25 00:49:37;;;;;;;9.07;4.55;;;9.60;97.10;;;;;;5071900;28;20383;-56
2021/04/25 00:52:03;;;;;;;9.10;4.30;;;9.60;97.10;;;;;;5070951;28;20384;-55
2021/04/25 00:54:29;;;;;;;12.25;4.97;;;9.60;97.50;;;;;;5071414;28;20403;-56
2021/04/25 00:56:55;;;;;;;11.35;4.40;;;9.60;97.90;;;;;;5071346;28;20426;-55
2021/04/25 00:59:20;;;;;;;9.37;4.40;;;9.60;98.10;;;;;;5071956;28;20383;-55
2021/04/25 01:01:46;;;;;;;11.10;4.70;;;9.40;98.70;;;;;;5071812;28;20387;-55
2021/04/25 01:04:12;;;;;;;10.77;4.67;;;9.40;99.20;;;;;;5071086;28;20457;-55
2021/04/25 01:06:37;;;;;;;11.82;4.80;;;9.40;99.20;;;;;;5071655;28;20403;-55
2021/04/25 01:09:04;;;;;;;10.20;4.40;;;9.50;99.30;;;;;;5071157;28;20476;-54
2021/04/25 01:11:30;;;;;;;11.27;4.40;;;9.30;99.70;;;;;;5071613;28;20430;-55
2021/04/25 01:13:56;;;;;;;12.95;4.50;;;9.30;99.90;;;;;;5071540;28;20849;-55
2021/04/25 01:16:21;;;;;;;12.87;4.60;;;9.30;99.90;;;;;;5071319;28;20411;-55
2021/04/25 01:18:47;;;;;;;10.00;4.32;;;9.20;99.90;;;;;;5071649;28;20445;-55
2021/04/25 01:21:13;;;;;;;8.77;4.30;;;9.10;99.90;;;;;;5071171;28;20452;-56
2021/04/25 01:23:39;;;;;;;11.05;4.10;;;9.10;99.90;;;;;;5071501;28;20914;-55
2021/04/25 01:26:05;;;;;;;9.50;4.15;;;9.10;99.90;;;;;;5070539;28;20391;-56
2021/04/25 01:28:31;;;;;;;10.30;4.40;;;9.10;99.90;;;;;;5071161;28;20382;-55
2021/04/25 01:30:56;;;;;;;9.63;4.20;;;9.10;99.90;;;;;;5070513;28;20848;-55
2021/04/25 01:33:24;;;;;;;10.55;4.07;;;9.00;99.90;;;;;;5070829;28;20383;-55
2021/04/25 01:35:50;;;;;;;8.88;4.30;;;9.00;99.90;;;;;;5071495;28;20386;-57
2021/04/25 01:38:15;;;;;;;8.75;4.30;;;8.90;99.90;;;;;;5069987;28;20462;-55
2021/04/25 01:40:41;;;;;;;8.73;5.27;;;8.80;99.90;;;;;;5071220;28;20718;-55
2021/04/25 01:43:07;;;;;;;10.30;4.50;;;7.10;99.90;;;;;;5070032;28;20923;-55
2021/04/25 01:45:33;;;;;;;10.73;4.53;;;8.60;99.90;;;;;;5070184;28;20737;-55
2021/04/25 01:48:01;;;;;;;11.05;4.85;;;8.60;99.90;;;;;;5070240;28;20380;-55
2021/04/25 01:50:28;;;;;;;9.10;4.30;;;8.60;99.90;;;;;;5071003;28;20445;-56
2021/04/25 01:52:54;;;;;;;10.65;4.70;;;8.60;99.90;;;;;;5070693;28;20411;-55
2021/04/25 01:55:22;;;;;;;10.03;4.67;;;8.70;99.90;;;;;;5070239;28;20430;-55
2021/04/25 01:57:48;;;;;;;8.85;4.57;;;8.70;99.90;;;;;;5068268;28;20384;-55
2021/04/25 02:00:17;;;;;;;9.53;4.43;;;8.60;99.90;;;;;;5072063;28;20384;-55
2021/04/25 02:02:44;;;;;;;9.60;4.50;;;8.60;99.90;;;;;;5072008;28;20403;-55
2021/04/25 02:05:11;;;;;;;11.85;4.60;;;8.60;99.90;;;;;;5070118;28;20384;-55
2021/04/25 02:07:36;;;;;;;10.82;4.53;;;8.60;99.90;;;;;;5070311;28;20869;-55
2021/04/25 02:10:05;;;;;;;8.10;4.47;;;8.60;99.90;;;;;;5069691;28;20463;-56
2021/04/25 02:12:31;;;;;;;9.02;4.22;;;8.30;99.90;;;;;;5070454;28;20376;-56
2021/04/25 02:14:56;;;;;;;12.90;4.43;;;8.20;99.90;;;;;;5070385;28;20416;-55
2021/04/25 02:17:22;;;;;;;10.80;4.60;;;8.10;99.90;;;;;;5069880;28;20378;-56
2021/04/25 02:19:48;;;;;;;11.50;4.60;;;8.00;99.90;;;;;;5070288;28;20428;-55
2021/04/25 02:22:13;;;;;;;12.03;4.57;;;8.00;99.90;;;;;;5069438;28;20769;-55
2021/04/25 02:24:39;;;;;;;9.80;4.35;;;7.90;99.90;;;;;;5070530;28;20388;-55
2021/04/25 02:27:05;;;;;;;10.87;5.47;;;7.80;99.90;;;;;;5069323;28;20387;-55
2021/04/25 02:29:31;;;;;;;10.75;4.40;;;7.80;99.90;;;;;;5070225;28;20367;-55
2021/04/25 02:31:56;;;;;;;9.82;4.32;;;7.70;99.90;;;;;;5069724;28;20882;-55
2021/04/25 02:34:22;;;;;;;10.20;4.60;;;7.70;99.90;;;;;;5069489;28;20889;-55
2021/04/25 02:36:48;;;;;;;11.18;4.72;;;7.60;99.90;;;;;;5070188;28;20710;-56
2021/04/25 02:39:13;;;;;;;8.75;4.22;;;7.50;99.90;;;;;;5069303;28;20437;-55
2021/04/25 02:41:39;;;;;;;10.00;4.37;;;7.40;99.90;;;;;;5069717;28;20375;-55
2021/04/25 02:44:05;;;;;;;10.15;4.65;;;7.40;99.90;;;;;;5069183;28;20386;-55
2021/04/25 02:46:32;;;;;;;9.70;5.00;;;7.40;99.90;;;;;;5070009;28;20416;-55
2021/04/25 02:48:58;;;;;;;10.57;5.03;;;7.50;99.90;;;;;;5069397;28;20376;-55
2021/04/25 02:51:25;;;;;;;11.60;5.07;;;7.40;99.90;;;;;;5069663;28;20462;-55
2021/04/25 02:53:51;;;;;;;10.93;4.70;;;7.40;99.90;;;;;;5069844;28;20423;-55
2021/04/25 02:56:17;;;;;;;11.60;4.80;;;7.40;99.90;;;;;;5069041;28;20669;-55
2021/04/25 02:58:42;;;;;;;9.53;5.03;;;7.40;99.90;;;;;;5069706;28;20387;-55
2021/04/25 03:01:08;;;;;;;10.17;4.70;;;7.30;99.90;;;;;;5068740;28;20733;-55
2021/04/25 03:03:33;;;;;;;8.75;4.40;;;7.20;99.90;;;;;;5069618;28;20379;-55
2021/04/25 03:05:59;;;;;;;11.67;5.17;;;7.10;99.90;;;;;;5069193;28;20379;-55
2021/04/25 03:08:25;;;;;;;10.07;4.75;;;7.00;99.90;;;;;;5069694;28;20402;-55
2021/04/25 03:10:51;;;;;;;10.80;4.60;;;7.00;99.90;;;;;;5069681;28;20387;-55
2021/04/25 03:13:17;;;;;;;9.35;4.45;;;7.00;99.90;;;;;;5068951;28;20387;-55
2021/04/25 03:15:43;;;;;;;11.17;4.73;;;6.90;99.90;;;;;;5069803;28;20415;-55
2021/04/25 03:18:09;;;;;;;11.20;4.70;;;6.80;99.90;;;;;;5068928;28;20398;-55
2021/04/25 03:20:34;;;;;;;10.80;5.00;;;6.80;99.90;;;;;;5069782;28;20467;-55
2021/04/25 03:23:01;;;;;;;10.43;5.00;;;6.90;99.90;;;;;;5068957;28;20391;-55
2021/04/25 03:25:26;;;;;;;11.80;4.90;;;6.90;99.90;;;;;;5069830;28;20379;-55
2021/04/25 03:27:53;;;;;;;13.27;4.75;;;6.90;99.90;;;;;;5070157;28;20459;-55
2021/04/25 03:30:19;;;;;;;11.18;4.93;;;7.00;99.90;;;;;;5068895;28;20375;-55
2021/04/25 03:32:46;;;;;;;11.27;5.15;;;7.00;99.90;;;;;;5069576;28;20380;-55
2021/04/25 03:35:13;;;;;;;8.95;4.32;;;6.90;99.90;;;;;;5068922;28;20469;-55
2021/04/25 03:37:40;;;;;;;13.23;4.90;;;6.90;99.90;;;;;;5069330;28;20495;-56
2021/04/25 03:40:09;;;;;;;9.55;5.03;;;7.00;99.90;;;;;;5069096;28;20380;-55
2021/04/25 03:42:35;;;;;;;11.70;4.93;;;6.80;99.90;;;;;;5069533;28;20429;-55
2021/04/25 03:45:01;;;;;;;10.80;4.97;;;6.70;99.90;;;;;;5069273;28;20805;-55
2021/04/25 03:47:26;;;;;;;10.38;4.85;;;6.60;99.90;;;;;;5069316;28;20384;-55
2021/04/25 03:49:52;;;;;;;15.30;5.00;;;6.50;99.90;;;;;;5068284;28;20380;-57
2021/04/25 03:52:18;;;;;;;10.50;4.80;;;6.50;99.90;;;;;;5069253;28;20564;-57
2021/04/25 03:54:43;;;;;;;11.45;5.07;;;6.30;99.90;;;;;;5073398;28;20510;-58
2021/04/25 03:57:09;;;;;;;11.50;5.10;;;6.30;99.90;;;;;;5071194;28;20721;-55
2021/04/25 03:59:35;;;;;;;9.93;5.10;;;6.30;99.90;;;;;;5072934;28;20443;-55
2021/04/25 04:02:01;;;;;;;11.90;5.30;;;6.10;99.90;;;;;;5072498;28;20384;-55
2021/04/25 04:04:27;;;;;;;12.15;4.90;;;6.10;99.90;;;;;;5072692;28;20388;-57
2021/04/25 04:06:52;;;;;;;10.83;5.00;;;6.10;99.90;;;;;;5073090;28;20387;-57
2021/04/25 04:09:18;;;;;;;15.13;5.72;;;6.10;99.90;;;;;;5072485;28;20414;-56
2021/04/25 04:11:45;;;;;;;10.05;5.00;;;6.10;99.90;;;;;;5072903;28;20419;-57
2021/04/25 04:14:11;;;;;;;10.73;4.93;;;6.00;99.90;;;;;;5071769;28;20494;-57
2021/04/25 04:16:37;;;;;;;12.98;6.10;;;6.00;99.90;;;;;;5072777;28;20376;-57
2021/04/25 04:19:03;;;;;;;11.13;5.37;;;6.00;99.90;;;;;;5071998;28;20380;-57
2021/04/25 04:21:28;;;;;;;10.40;4.50;;;6.00;99.90;;;;;;5072692;28;20740;-57
2021/04/25 04:23:54;;;;;;;12.60;5.13;;;6.00;99.90;;;;;;5072474;28;20407;-57
2021/04/25 04:26:21;;;;;;;11.43;4.80;;;6.10;99.90;;;;;;5071771;28;20384;-57
2021/04/25 04:28:46;;;;;;;11.20;5.40;;;6.10;99.90;;;;;;5072499;28;20422;-57
2021/04/25 04:31:12;;;;;;;13.43;5.40;;;6.20;99.90;;;;;;5072053;28;20411;-57
2021/04/25 04:33:38;;;;;;;13.37;5.10;;;6.10;99.90;;;;;;5072278;28;20424;-58
2021/04/25 04:36:04;;;;;;;11.90;4.97;;;6.10;99.90;;;;;;5071777;28;20402;-56
2021/04/25 04:38:30;;;;;;;12.30;5.07;;;6.00;99.90;;;;;;5072559;28;20379;-57
2021/04/25 04:40:56;;;;;;;12.07;5.18;;;6.10;99.90;;;;;;5071117;28;20812;-58
2021/04/25 04:43:23;;;;;;;11.43;5.60;;;6.20;99.90;;;;;;5071604;28;20813;-56
2021/04/25 04:45:49;;;;;;;12.60;5.50;;;6.10;99.90;;;;;;5072132;28;20547;-58
2021/04/25 04:48:14;;;;;;;11.57;5.70;;;6.10;99.90;;;;;;5071219;28;20996;-56
2021/04/25 04:50:40;;;;;;;10.00;4.50;;;6.30;99.90;;;;;;5071845;28;20392;-56
2021/04/25 04:53:06;;;;;;;12.50;5.23;;;6.70;99.90;;;;;;5070907;28;20426;-54
2021/04/25 04:55:31;;;;;;;10.90;4.93;;;7.50;99.90;;;;;;5071991;28;20395;-54
2021/04/25 04:57:57;;;;;;;10.25;4.95;;;8.00;99.90;;;;;;5072159;28;20874;-56
2021/04/25 05:00:23;;;;;;;9.67;4.30;;;8.50;99.90;;;;;;5071203;28;20490;-54
2021/04/25 05:02:48;;;;;;;11.13;5.28;;;8.90;99.90;;;;;;5071440;28;20729;-56
2021/04/25 05:05:14;;;;;;;9.50;4.70;;;9.30;99.90;;;;;;5071186;28;20383;-56
2021/04/25 05:07:40;;;;;;;10.25;5.28;;;9.70;99.90;;;;;;5071742;28;20382;-56
2021/04/25 05:10:06;;;;;;;9.93;5.20;;;10.00;99.90;;;;;;5071175;28;20448;-56
2021/04/25 05:12:32;;;;;;;9.02;5.20;;;10.40;99.90;;;;;;5071802;28;20382;-56
2021/04/25 05:14:58;;;;;;;11.95;5.25;;;10.50;99.90;;;;;;5070395;28;20796;-57
2021/04/25 05:17:23;;;;;;;10.27;5.40;;;10.70;99.90;;;;;;5070635;28;20463;-56
2021/04/25 05:19:49;;;;;;;10.90;5.50;;;11.20;99.90;;;;;;5072157;28;20475;-57
2021/04/25 05:22:15;;;;;;;11.07;5.13;;;11.70;99.90;;;;;;5070687;28;20407;-56
2021/04/25 05:24:40;;;;;;;10.67;5.70;;;11.90;99.90;;;;;;5071271;28;20391;-57
2021/04/25 05:27:06;;;;;;;9.70;5.85;;;12.40;99.00;;;;;;5070862;28;20441;-55
2021/04/25 05:29:32;;;;;;;12.93;5.27;;;13.10;96.80;;;;;;5070786;28;20383;-54
2021/04/25 05:31:59;;;;;;;13.60;5.30;;;13.90;94.80;;;;;;5070175;28;20388;-55
2021/04/25 05:34:24;;;;;;;9.80;5.50;;;14.10;92.30;;;;;;5070551;28;20419;-54
2021/04/25 05:36:50;;;;;;;10.98;6.00;;;14.70;91.10;;;;;;5071100;28;20387;-55
2021/04/25 05:39:15;;;;;;;12.80;5.70;;;14.90;89.30;;;;;;5070495;28;20380;-54
2021/04/25 05:41:41;;;;;;;10.80;5.60;;;15.70;85.50;;;;;;5071236;28;20376;-54
2021/04/25 05:44:07;;;;;;;10.53;5.27;;;16.60;79.80;;;;;;5069335;28;20384;-54
2021/04/25 05:46:35;;;;;;;9.90;5.00;;;16.10;76.50;;;;;;5070851;28;20861;-54
2021/04/25 05:49:02;;;;;;;11.07;5.97;;;15.80;77.80;;;;;;5070084;28;20752;-55
2021/04/25 05:51:28;;;;;;;10.38;5.40;;;16.20;76.20;;;;;;5071061;28;20376;-56
2021/04/25 05:53:54;;;;;;;11.43;6.00;;;17.40;73.20;;;;;;5060671;28;20428;-55
2021/04/25 05:56:21;;;;;;;13.93;5.70;;;18.10;67.40;;;;;;5070133;28;20429;-55
2021/04/25 05:58:47;;;;;;;12.48;6.05;;;18.40;64.90;;;;;;5068970;28;20441;-55
2021/04/25 06:01:13;;;;;;;10.50;5.80;;;17.70;64.50;;;;;;5069728;28;20384;-55
2021/04/25 06:03:38;;;;;;;12.13;5.90;;;17.10;65.90;;;;;;5069410;28;20408;-55
2021/04/25 06:06:04;;;;;;;12.63;5.90;;;17.20;67.50;;;;;;5069874;28;20379;-55
2021/04/25 06:08:30;;;;;;;11.07;6.20;;;17.60;67.00;;;;;;5070217;28;20384;-55
2021/04/25 06:10:56;;;;;;;11.90;6.03;;;17.60;65.70;;;;;;5070623;28;20437;-55
2021/04/25 06:13:22;;;;;;;11.90;6.70;;;17.70;64.10;;;;;;5069144;28;20445;-55
2021/04/25 06:15:47;;;;;;;13.95;6.05;;;18.00;64.10;;;;;;5069104;28;20502;-55
2021/04/25 06:18:13;;;;;;;12.83;7.00;;;17.90;63.50;;;;;;5069233;28;20388;-55
2021/04/25 06:20:39;;;;;;;15.23;7.10;;;18.50;60.70;;;;;;5069673;28;20375;-55
2021/04/25 06:23:04;;;;;;;10.53;6.03;;;18.00;63.10;;;;;;5069741;28;20916;-55
2021/04/25 06:25:30;;;;;;;11.13;6.95;;;18.50;60.40;;;;;;5069930;28;20380;-55
2021/04/25 06:27:55;;;;;;;12.98;6.85;;;19.50;58.90;;;;;;5069853;28;20380;-55
2021/04/25 06:30:22;;;;;;;11.65;6.50;;;19.90;57.60;;;;;;5068757;28;20995;-55
2021/04/25 06:32:48;;;;;;;11.57;6.72;;;19.90;56.30;;;;;;5069354;28;20372;-55
2021/04/25 06:35:15;;;;;;;12.15;6.32;;;19.40;56.90;;;;;;5068395;28;20411;-55
2021/04/25 06:37:42;;;;;;;13.25;7.30;;;19.40;56.90;;;;;;5070126;28;20462;-55
2021/04/25 06:40:10;;;;;;;15.05;7.10;;;19.80;56.70;;;;;;5069045;28;20873;-55
2021/04/25 06:42:39;;;;;;;12.30;7.60;;;21.00;54.10;;;;;;5069494;28;20395;-55
2021/04/25 06:45:07;;;;;;;11.85;6.60;;;20.60;54.40;;;;;;5069128;28;20441;-55
2021/04/25 06:47:32;;;;;;;12.95;7.00;;;21.10;53.90;;;;;;5069965;28;20376;-55
2021/04/25 06:49:58;;;;;;;15.17;7.90;;;20.90;52.90;;;;;;5069996;28;20384;-55
2021/04/25 06:52:24;;;;;;;12.20;7.27;;;20.40;53.70;;;;;;5068677;28;20861;-55
2021/04/25 06:54:49;;;;;;;12.38;8.32;;;20.20;53.80;;;;;;5069538;28;20506;-55
2021/04/25 06:57:15;;;;;;;14.77;8.65;;;20.60;53.20;;;;;;5069070;28;20477;-56
2021/04/25 06:59:41;;;;;;;14.25;8.60;;;21.50;51.60;;;;;;5069617;28;20386;-55
2021/04/25 07:02:06;;;;;;;15.07;8.60;;;21.10;51.30;;;;;;5068934;28;20404;-56
2021/04/25 07:04:32;;;;;;;14.33;8.53;;;20.80;52.10;;;;;;5069143;28;20398;-56
2021/04/25 07:06:58;;;;;;;15.53;8.90;;;20.50;52.20;;;;;;5069653;28;20375;-56
2021/04/25 07:09:23;;;;;;;15.07;8.87;;;20.80;52.40;;;;;;5068759;28;20825;-55
2021/04/25 07:11:49;;;;;;;15.75;9.38;;;21.20;51.10;;;;;;5069952;28;20462;-55
2021/04/25 07:14:15;;;;;;;15.75;9.27;;;21.30;51.70;;;;;;5068364;28;20765;-55
2021/04/25 07:16:40;;;;;;;16.60;9.85;;;21.00;51.20;;;;;;5069525;28;20380;-55
2021/04/25 07:19:06;;;;;;;15.60;9.32;;;20.90;51.10;;;;;;5068845;28;20845;-56
2021/04/25 07:21:32;;;;;;;13.98;9.80;;;21.00;50.60;;;;;;5069506;28;20797;-55
2021/04/25 07:23:57;;;;;;;17.50;10.20;;;21.40;50.50;;;;;;5068415;28;20395;-55
2021/04/25 07:26:23;;;;;;;14.47;8.83;;;21.80;50.10;;;;;;5068973;28;20873;-55
2021/04/25 07:28:49;;;;;;;15.90;10.40;;;22.10;49.80;;;;;;5073568;28;20383;-55
2021/04/25 07:31:14;;;;;;;15.10;9.67;;;22.30;48.60;;;;;;5072298;28;20729;-55
2021/04/25 07:33:40;;;;;;;14.63;8.90;;;21.60;48.70;;;;;;5073056;28;20493;-55
2021/04/25 07:36:09;;;;;;;16.23;9.75;;;20.80;50.90;;;;;;5072925;28;20386;-55
2021/04/25 07:38:39;;;;;;;14.07;9.60;;;21.60;49.80;;;;;;5073042;28;20745;-55
2021/04/25 07:41:05;;;;;;;16.60;10.00;;;21.60;49.70;;;;;;5073051;28;20398;-56
2021/04/25 07:43:31;;;;;;;14.57;9.48;;;21.70;49.30;;;;;;5072911;28;20418;-55
2021/04/25 07:45:57;;;;;;;16.02;10.20;;;22.30;48.90;;;;;;5071852;28;20975;-55
2021/04/25 07:48:22;;;;;;;15.50;10.03;;;23.00;47.90;;;;;;5072234;28;20472;-55
2021/04/25 07:50:48;;;;;;;16.67;9.00;;;23.30;46.60;;;;;;5072200;28;20557;-55
2021/04/25 07:53:15;;;;;;;16.10;10.00;;;23.00;46.50;;;;;;5071568;28;20411;-55
2021/04/25 07:55:41;;;;;;;16.80;10.00;;;23.90;48.10;;;;;;5072642;28;20434;-55
2021/04/25 07:58:07;;;;;;;16.90;10.43;;;21.80;47.90;;;;;;5071826;28;20423;-55
2021/04/25 08:00:32;;;;;;;16.50;10.00;;;22.00;47.30;;;;;;5072629;28;20467;-55
2021/04/25 08:02:58;;;;;;;16.00;10.00;;;21.30;48.40;;;;;;5072418;28;20406;-55
2021/04/25 08:05:23;;;;;;;16.20;10.70;;;21.30;48.40;;;;;;5072104;28;20398;-55
2021/04/25 08:07:51;;;;;;;17.02;10.82;;;20.90;48.80;;;;;;5072832;28;20437;-55
2021/04/25 08:10:17;;;;;;;17.27;10.83;;;21.60;48.60;;;;;;5071919;28;20379;-55
2021/04/25 08:12:42;;;;;;;15.98;11.10;;;22.40;47.90;;;;;;5072518;28;20690;-55
2021/04/25 08:15:09;;;;;;;22.60;11.60;;;23.00;46.70;;;;;;5070771;28;20461;-56
2021/04/25 08:17:34;;;;;;;15.60;11.00;;;23.50;45.40;;;;;;5071965;28;20388;-55
2021/04/25 08:20:00;;;;;;;17.60;11.77;;;24.60;44.00;;;;;;5071496;28;20382;-55
2021/04/25 08:22:26;;;;;;;16.45;11.60;;;25.40;42.80;;;;;;5065261;28;20856;-55
2021/04/25 08:24:51;;;;;;;15.40;10.95;;;24.80;42.90;;;;;;5073963;28;20474;-55
2021/04/25 08:27:17;;;;;;;15.45;11.02;;;24.20;43.50;;;;;;5072717;28;20441;-55
2021/04/25 08:29:43;;;;;;;19.60;11.40;;;23.30;44.20;;;;;;5066659;28;20449;-55
2021/04/25 08:32:09;;;;;;;14.85;10.60;;;24.00;44.10;;;;;;5072228;28;20372;-55
2021/04/25 08:34:34;;;;;;;16.95;11.48;;;24.30;43.20;;;;;;5075002;28;20437;-53
2021/04/25 08:37:00;;;;;;;15.70;10.77;;;24.90;42.80;;;;;;5074920;28;20381;-54
2021/04/25 08:39:26;;;;;;;15.70;10.43;;;24.60;43.00;;;;;;5078346;28;20381;-54
2021/04/25 08:41:54;;;;;;;15.37;11.30;;;24.80;42.80;;;;;;5080542;28;20392;-53
2021/04/25 08:44:21;;;;;;;18.00;11.32;;;24.90;41.90;;;;;;5071684;28;20482;-54
2021/04/25 08:46:49;;;;;;;17.95;10.95;;;23.90;43.10;;;;;;5074949;28;20450;-54
2021/04/25 08:49:23;;;;;;;14.35;9.90;;;23.40;43.20;;;;;;5070473;28;20438;-54
2021/04/25 08:51:50;;;;;;;14.82;10.55;;;23.70;43.50;;;;;;5070016;28;20383;-54
2021/04/25 08:54:16;;;;;;;16.53;10.27;;;23.80;42.60;;;;;;5066849;28;20439;-54
2021/04/25 08:56:42;;;;;;;16.95;10.10;;;24.30;42.20;;;;;;5070394;28;20410;-55
2021/04/25 08:59:08;;;;;;;16.13;9.07;;;24.30;42.40;;;;;;5070596;28;20384;-55
2021/04/25 09:01:35;;;;;;;15.90;9.80;;;25.30;41.30;;;;;;5070927;28;20702;-54
2021/04/25 09:04:01;;;;;;;15.77;9.70;;;26.30;39.70;;;;;;5071226;28;20419;-52
2021/04/25 09:06:27;;;;;;;16.48;9.60;;;26.50;39.20;;;;;;5070955;28;20612;-51
2021/04/25 09:08:57;;;;;;;13.77;8.32;;;26.50;38.10;;;;;;5070923;28;20372;-52
2021/04/25 09:11:27;;;;;;;15.50;9.52;;;27.50;37.50;;;;;;5070390;28;20386;-52
2021/04/25 09:14:19;;;;;;;14.43;9.43;;;27.10;37.30;;;;;;5070682;28;20392;-52
2021/04/25 09:16:57;;;;;;;14.63;8.88;;;25.80;39.00;;;;;;5069665;28;20687;-55
2021/04/25 09:19:23;;;;;;;16.33;10.05;;;25.20;40.00;;;;;;5068785;28;20392;-55
2021/04/25 09:22:07;;;;;;;12.88;8.60;;;23.60;38.80;;;;;;5070674;28;20867;-55
2021/04/25 09:24:33;;;;;;;14.70;9.30;;;24.30;40.70;;;;;;5070234;28;20531;-55
2021/04/25 09:26:59;;;;;;;14.77;9.60;;;24.70;40.30;;;;;;5071525;28;20467;-55
2021/04/25 09:29:27;;;;;;;14.88;9.23;;;25.40;40.00;;;;;;5073518;28;20396;-53
2021/04/25 09:31:55;;;;;;;14.20;8.40;;;26.20;38.90;;;;;;5072650;28;20376;-53
2021/04/25 09:34:27;;;;;;;13.32;8.75;;;26.60;38.20;;;;;;5072024;28;20497;-53
2021/04/25 09:36:53;;;;;;;15.40;8.57;;;25.70;38.00;;;;;;5072535;28;20410;-53
2021/04/25 09:39:19;;;;;;;13.70;9.05;;;26.20;38.00;;;;;;5071453;28;20380;-53
2021/04/25 09:41:46;;;;;;;12.40;8.32;;;27.40;36.90;;;;;;5072068;28;20741;-53
2021/04/25 09:44:32;;;;;;;13.30;7.60;;;26.40;36.30;;;;;;5071219;28;20384;-55
2021/04/25 09:47:01;;;;;;;13.77;7.65;;;26.30;36.80;;;;;;5071916;28;20865;-55
2021/04/25 09:49:45;;;;;;;11.65;7.93;;;26.20;36.60;;;;;;5071377;28;20371;-54
2021/04/25 09:52:36;;;;;;;13.80;7.65;;;26.10;37.30;;;;;;5070121;28;20451;-55
2021/04/25 09:55:27;;;;;;;12.25;8.30;;;25.60;36.50;;;;;;5066077;28;20423;-56
2021/04/25 09:57:58;;;;;;;12.20;7.47;;;24.40;37.70;;;;;;5071537;28;20384;-56
2021/04/25 10:00:41;;;;;;;12.30;7.45;;;23.50;38.90;;;;;;5069350;28;20384;-70
2021/04/25 10:03:10;;;;;;;11.88;6.80;;;24.40;38.20;;;;;;5068079;28;20383;-69
2021/04/25 10:18:57;;;;;;;10.10;5.70;;;27.10;38.70;;;;;;5118294;27;20373;-62
2021/04/25 10:21:24;;;;;;;10.25;5.40;;;23.50;36.80;;;;;;5102716;28;20404;-62
2021/04/25 10:23:49;;;;;;;11.20;5.22;;;23.30;36.90;;;;;;5100746;28;20794;-57
2021/04/25 10:26:17;;;;;;;10.50;5.80;;;23.30;36.80;;;;;;5103719;28;20457;-55
2021/04/25 10:28:56;;;;;;;9.85;6.05;;;23.30;37.20;;;;;;5103048;28;20468;-58
2021/04/25 10:31:34;;;;;;;11.27;5.95;;;22.50;36.40;;;;;;5094838;28;20435;-59
2021/04/25 10:34:03;;;;;;;9.48;4.88;;;21.60;37.70;;;;;;5102298;28;20450;-58
2021/04/25 10:36:51;;;;;;;10.20;4.37;;;21.60;36.70;;;;;;5104748;28;20420;-58
2021/04/25 10:39:35;;;;;;;8.93;4.90;;;21.40;35.60;;;;;;5097623;28;20413;-53
2021/04/25 10:42:24;;;;;;;10.65;4.90;;;20.80;35.80;;;;;;5098247;28;20385;-57
2021/04/25 10:44:59;;;;;;;11.30;5.47;;;20.40;37.50;;;;;;5104690;28;20393;-57
2021/04/25 10:47:36;;;;;;;9.80;5.13;;;20.50;37.80;;;;;;5102223;28;20409;-58
2021/04/25 10:50:17;;;;;;;10.57;5.10;;;20.10;38.90;;;;;;5103320;28;20434;-57
2021/04/25 10:52:46;;;;;;;10.75;5.60;;;19.80;39.30;;;;;;5091520;28;20474;-56
2021/04/25 10:55:20;;;;;;;9.75;5.15;;;19.20;39.40;;;;;;5102993;28;20377;-57
2021/04/25 10:57:56;;;;;;;9.27;4.95;;;18.80;40.00;;;;;;5104122;28;20522;-58
2021/04/25 11:00:34;;;;;;;8.32;4.70;;;18.90;40.00;;;;;;5093706;28;20913;-57
2021/04/25 11:03:07;;;;;;;9.10;4.30;;;19.20;38.30;;;;;;5086880;28;20845;-58
2021/04/25 11:05:36;;;;;;;10.23;5.32;;;19.40;37.70;;;;;;5089076;28;20389;-57
2021/04/25 11:08:05;;;;;;;10.15;4.90;;;19.90;37.40;;;;;;5097496;28;20422;-58
2021/04/25 11:10:55;;;;;;;8.80;4.60;;;20.10;37.90;;;;;;5097515;28;20389;-57
2021/04/25 11:13:33;;;;;;;9.43;4.35;;;20.10;37.40;;;;;;5083095;28;20418;-52
2021/04/25 11:16:01;;;;;;;9.23;4.70;;;20.00;37.80;;;;;;5102157;28;20445;-58
2021/04/25 11:18:47;;;;;;;10.50;4.18;;;19.90;37.60;;;;;;5103961;28;20394;-58
2021/04/25 11:23:57;;;;;;;12.40;6.53;;;19.30;38.10;;;;;;5099872;28;20381;-57
2021/04/25 11:26:43;;;;;;;10.90;5.13;;;19.20;37.70;;;;;;5101269;27;20382;-58
2021/04/25 11:29:20;;;;;;;9.07;4.60;;;19.60;37.20;;;;;;5103542;28;20383;-58
2021/04/25 11:34:36;;;;;;;10.52;5.13;;;19.80;36.80;;;;;;5108944;28;20373;-58
2021/04/25 11:37:21;;;;;;;10.82;5.15;;;20.00;36.50;;;;;;5072150;28;20880;-58
2021/04/25 11:39:48;;;;;;;9.68;4.75;;;19.60;36.40;;;;;;5097861;28;20378;-58
2021/04/25 11:42:25;;;;;;;10.55;4.90;;;19.70;36.90;;;;;;5108579;28;20380;-58
2021/04/25 11:44:51;;;;;;;8.82;4.20;;;19.40;36.40;;;;;;5109332;28;20839;-57
2021/04/25 11:47:17;;;;;;;10.07;4.18;;;19.60;36.10;;;;;;5109251;28;20408;-58
2021/04/25 11:49:47;;;;;;;8.38;4.00;;;19.80;35.70;;;;;;5099237;28;20396;-56
2021/04/25 11:52:30;;;;;;;10.02;3.95;;;19.50;34.90;;;;;;5106460;28;20830;-58
2021/04/25 11:55:04;;;;;;;10.32;4.78;;;19.30;34.50;;;;;;5109474;28;20434;-58
2021/04/25 11:57:32;;;;;;;16.40;8.77;;;19.20;36.10;;;;;;5105779;28;20377;-56
2021/04/25 12:00:02;;;;;;;11.40;6.57;;;19.30;36.60;;;;;;5105607;28;20388;-58
2021/04/25 12:02:33;;;;;;;11.55;4.53;;;19.60;37.30;;;;;;5106915;28;20396;-57
2021/04/25 12:05:13;;;;;;;10.32;5.15;;;19.00;37.40;;;;;;5091767;28;20362;-57
2021/04/25 12:07:38;;;;;;;14.02;5.35;;;19.00;36.70;;;;;;5099996;28;20418;-57
2021/04/25 12:10:19;;;;;;;10.57;5.32;;;19.00;36.50;;;;;;5097298;28;20850;-57
2021/04/25 12:12:59;;;;;;;7.15;3.90;;;19.40;36.10;;;;;;5107616;28;20492;-57
2021/04/25 12:15:25;;;;;;;9.70;4.57;;;19.50;35.60;;;;;;5099291;28;20376;-56
2021/04/25 12:17:58;;;;;;;9.07;4.30;;;19.40;35.30;;;;;;5099177;28;20781;-55
2021/04/25 12:20:25;;;;;;;8.52;3.72;;;19.30;35.20;;;;;;5105526;28;20437;-53
2021/04/25 12:22:51;;;;;;;9.27;3.83;;;19.20;36.40;;;;;;5094918;28;20391;-57
2021/04/25 12:25:18;;;;;;;9.85;4.68;;;19.50;36.70;;;;;;5104180;28;20378;-57
2021/04/25 12:27:52;;;;;;;9.85;4.47;;;19.40;36.50;;;;;;5101234;28;20408;-56
2021/04/25 12:30:29;;;;;;;8.17;3.80;;;19.10;36.20;;;;;;5107765;28;20380;-56
2021/04/25 12:33:09;;;;;;;10.27;4.40;;;19.00;35.90;;;;;;5107253;28;20376;-57
2021/04/25 12:35:37;;;;;;;8.63;4.20;;;19.00;35.90;;;;;;5108755;28;20376;-57
2021/04/25 12:38:21;;;;;;;7.50;3.90;;;18.70;35.00;;;;;;5111022;28;20438;-57
2021/04/25 12:40:57;;;;;;;10.00;3.92;;;18.80;35.50;;;;;;5104529;28;20730;-59
2021/04/25 12:43:24;;;;;;;8.27;3.55;;;19.00;36.00;;;;;;5105348;28;20376;-52
2021/04/25 12:45:50;;;;;;;9.48;3.70;;;19.20;36.60;;;;;;5107745;28;20375;-57
2021/04/25 12:48:22;;;;;;;10.55;4.28;;;19.30;36.40;;;;;;5110135;28;20425;-58
2021/04/25 12:51:06;;;;;;;8.93;4.30;;;19.40;36.10;;;;;;5107143;28;20464;-58
2021/04/25 12:53:43;;;;;;;8.23;4.25;;;19.50;36.30;;;;;;5109838;28;20377;-57
2021/04/25 12:56:40;;;;;;;9.05;4.50;;;19.00;37.30;;;;;;5106909;28;20430;-57
2021/04/25 12:59:06;;;;;;;7.75;3.78;;;18.90;37.40;;;;;;5104302;28;20385;-57
2021/04/25 13:01:35;;;;;;;10.50;4.00;;;19.00;38.00;;;;;;5103708;28;20383;-57
2021/04/25 13:04:31;;;;;;;9.95;4.18;;;19.00;37.40;;;;;;5110414;28;20429;-57
2021/04/25 13:07:26;;;;;;;7.43;3.78;;;18.80;37.80;;;;;;5110515;28;20408;-58